Time;durP1;ratioP1;P1;durP2;ratioP2;P2;SDS_P1;SDS_P2;PMS_P1;PMS_P2;Temp;Humidity;BMP_temperature;BMP_pressure;BME280_temperature;BME280_humidity;BME280_pressure;Samples;Min_cycle;Max_cycle;Signal;HPM_P1;HPM_P2
2020/12/01 00:00:43;;;;;;;20.42;7.03;;;-0.90;99.90;;;;;;5091429;28;20040;-48
2020/12/01 00:03:09;;;;;;;16.88;8.05;;;-0.90;99.90;;;;;;5086418;28;20048;-47
2020/12/01 00:05:36;;;;;;;8.73;4.60;;;-1.00;99.90;;;;;;5086997;28;20056;-48
2020/12/01 00:08:03;;;;;;;13.20;5.68;;;-1.10;99.90;;;;;;5090906;28;20048;-47
2020/12/01 00:10:34;;;;;;;11.57;5.50;;;-1.10;99.90;;;;;;5089783;28;20048;-47
2020/12/01 00:13:01;;;;;;;6.78;3.78;;;-1.10;99.90;;;;;;5077422;28;20044;-48
2020/12/01 00:15:28;;;;;;;14.13;7.55;;;-1.10;99.90;;;;;;5082122;28;20040;-47
2020/12/01 00:17:54;;;;;;;13.88;8.32;;;-1.10;99.90;;;;;;5081472;28;20056;-47
2020/12/01 00:20:22;;;;;;;19.60;8.90;;;-1.10;99.90;;;;;;5083961;28;20045;-47
2020/12/01 00:22:49;;;;;;;13.35;5.32;;;-1.10;99.90;;;;;;5081183;28;20531;-48
2020/12/01 00:25:17;;;;;;;12.65;5.88;;;-1.10;99.90;;;;;;5090824;28;20052;-48
2020/12/01 00:27:43;;;;;;;32.45;13.10;;;-1.10;99.90;;;;;;5087211;28;20059;-49
2020/12/01 00:30:14;;;;;;;33.25;14.38;;;-1.00;99.90;;;;;;5085625;28;20736;-47
2020/12/01 00:32:41;;;;;;;32.33;13.18;;;-1.00;99.90;;;;;;5083849;28;20047;-47
2020/12/01 00:35:09;;;;;;;22.52;11.50;;;-0.90;99.90;;;;;;5090343;28;20473;-47
2020/12/01 00:37:37;;;;;;;28.42;12.27;;;-0.90;99.90;;;;;;5086045;28;20094;-47
2020/12/01 00:40:07;;;;;;;21.52;8.20;;;-0.90;99.90;;;;;;5088036;28;20044;-47
2020/12/01 00:42:33;;;;;;;23.52;11.35;;;-0.90;99.90;;;;;;5085635;28;20048;-47
2020/12/01 00:45:00;;;;;;;26.75;10.52;;;-0.90;99.90;;;;;;5081142;28;20052;-50
2020/12/01 00:47:26;;;;;;;21.67;10.23;;;-1.10;99.90;;;;;;5091694;28;20048;-48
2020/12/01 00:49:53;;;;;;;24.80;11.48;;;-1.00;99.90;;;;;;5082494;28;20056;-47
2020/12/01 00:52:19;;;;;;;30.85;14.05;;;-1.10;99.90;;;;;;5089476;28;20040;-48
2020/12/01 00:54:46;;;;;;;30.48;14.35;;;-1.40;99.90;;;;;;5086036;28;20366;-47
2020/12/01 00:57:12;;;;;;;26.67;13.65;;;-1.50;99.90;;;;;;5086971;28;20036;-47
2020/12/01 00:59:39;;;;;;;29.70;14.50;;;-1.50;99.90;;;;;;5079573;28;20102;-47
2020/12/01 01:02:06;;;;;;;26.48;12.73;;;-1.50;99.90;;;;;;5085588;28;20106;-47
2020/12/01 01:04:32;;;;;;;27.92;14.52;;;-1.20;99.90;;;;;;5090305;28;20048;-48
2020/12/01 01:06:59;;;;;;;29.13;13.40;;;-1.20;99.90;;;;;;5086636;28;20047;-47
2020/12/01 01:09:26;;;;;;;21.25;11.95;;;-1.20;99.90;;;;;;5077043;28;20045;-47
2020/12/01 01:11:52;;;;;;;25.40;12.75;;;-1.30;99.90;;;;;;5081347;28;20106;-47
2020/12/01 01:14:19;;;;;;;21.10;9.90;;;-1.60;99.90;;;;;;5076874;28;20047;-47
2020/12/01 01:16:45;;;;;;;17.52;9.60;;;-1.80;99.90;;;;;;5089425;28;20040;-47
2020/12/01 01:19:13;;;;;;;21.05;9.18;;;-2.00;99.90;;;;;;5083324;28;20056;-48
2020/12/01 01:21:45;;;;;;;20.45;8.75;;;-2.20;99.90;;;;;;5080081;28;20056;-47
2020/12/01 01:24:14;;;;;;;18.75;8.30;;;-2.20;99.90;;;;;;5085438;28;20105;-47
2020/12/01 01:26:45;;;;;;;14.77;7.50;;;-2.30;99.90;;;;;;5089523;28;20049;-47
2020/12/01 01:29:11;;;;;;;18.90;9.82;;;-2.30;99.90;;;;;;5081436;28;20134;-47
2020/12/01 01:31:38;;;;;;;17.90;7.32;;;-2.30;99.90;;;;;;5077069;28;20052;-49
2020/12/01 01:34:05;;;;;;;15.45;7.32;;;-2.30;99.90;;;;;;5088615;28;20123;-47
2020/12/01 01:36:33;;;;;;;15.27;7.90;;;-2.20;99.90;;;;;;5082595;28;20044;-48
2020/12/01 01:39:00;;;;;;;14.85;7.78;;;-2.00;99.90;;;;;;5075307;28;20044;-47
2020/12/01 01:41:31;;;;;;;20.10;7.95;;;-2.00;99.90;;;;;;5082987;28;20185;-47
2020/12/01 01:43:58;;;;;;;22.52;9.82;;;-2.00;99.90;;;;;;5089375;28;20037;-47
2020/12/01 01:46:47;;;;;;;21.48;11.27;;;-1.90;99.90;;;;;;5080508;28;20041;-48
2020/12/01 01:49:18;;;;;;;19.60;9.32;;;-1.80;99.90;;;;;;5078332;28;20070;-47
2020/12/01 01:51:56;;;;;;;22.27;9.80;;;-1.60;99.90;;;;;;5090020;28;20048;-47
2020/12/01 01:54:25;;;;;;;22.33;11.05;;;-1.60;99.90;;;;;;5083732;28;20044;-47
2020/12/01 01:56:56;;;;;;;20.95;10.02;;;-1.60;99.90;;;;;;5080471;28;20113;-47
2020/12/01 01:59:25;;;;;;;23.40;10.27;;;-1.70;99.90;;;;;;5081035;28;20044;-47
2020/12/01 02:01:53;;;;;;;27.40;12.23;;;-1.70;99.90;;;;;;5077689;28;20052;-49
2020/12/01 02:04:19;;;;;;;22.98;10.63;;;-1.70;99.90;;;;;;5089299;28;20060;-47
2020/12/01 02:06:54;;;;;;;22.58;10.75;;;-1.70;99.90;;;;;;5086623;28;20101;-47
2020/12/01 02:09:32;;;;;;;21.45;10.25;;;-1.50;99.90;;;;;;5081298;28;20097;-47
2020/12/01 02:12:02;;;;;;;20.70;9.68;;;-1.60;99.90;;;;;;5086149;28;20055;-47
2020/12/01 02:14:44;;;;;;;16.75;9.23;;;-1.60;99.90;;;;;;5087706;28;20051;-47
2020/12/01 02:17:32;;;;;;;17.40;10.15;;;-1.80;99.90;;;;;;5089591;28;20468;-47
2020/12/01 02:20:10;;;;;;;17.52;9.52;;;-1.90;99.90;;;;;;5085580;28;20044;-47
2020/12/01 02:22:38;;;;;;;12.77;8.52;;;-2.00;99.90;;;;;;5079504;28;20052;-47
2020/12/01 02:25:04;;;;;;;17.67;8.38;;;-2.00;99.90;;;;;;5086620;28;20549;-48
2020/12/01 02:27:31;;;;;;;16.52;7.75;;;-1.90;99.90;;;;;;5087306;28;20101;-48
2020/12/01 02:29:59;;;;;;;17.75;8.27;;;-2.00;99.90;;;;;;5088953;28;20105;-47
2020/12/01 02:32:27;;;;;;;17.52;8.55;;;-1.90;99.90;;;;;;5085929;28;20044;-48
2020/12/01 02:34:58;;;;;;;17.02;8.45;;;-1.90;99.90;;;;;;5089043;28;20056;-47
2020/12/01 02:37:27;;;;;;;13.85;7.35;;;-1.90;99.90;;;;;;5084247;28;20052;-47
2020/12/01 02:39:53;;;;;;;16.52;7.25;;;-2.00;99.90;;;;;;5087943;28;20056;-47
2020/12/01 02:42:23;;;;;;;15.73;8.13;;;-1.90;99.90;;;;;;5084502;28;20410;-48
2020/12/01 02:44:51;;;;;;;16.23;8.55;;;-1.80;99.90;;;;;;5083696;28;20129;-47
2020/12/01 02:47:18;;;;;;;13.23;7.47;;;-1.80;99.90;;;;;;5082079;28;20052;-48
2020/12/01 02:49:45;;;;;;;15.63;8.02;;;-1.90;99.90;;;;;;5078313;28;20051;-47
2020/12/01 02:52:11;;;;;;;16.02;7.85;;;-2.10;99.90;;;;;;5088705;28;20112;-47
2020/12/01 02:54:38;;;;;;;21.13;8.52;;;-2.20;99.90;;;;;;5084091;28;20036;-47
2020/12/01 02:57:04;;;;;;;15.73;8.70;;;-2.30;99.90;;;;;;5087354;28;20076;-47
2020/12/01 02:59:31;;;;;;;20.90;9.30;;;-2.30;99.90;;;;;;5085597;28;20098;-47
2020/12/01 03:01:58;;;;;;;13.88;6.00;;;-2.20;99.90;;;;;;5077106;28;20044;-47
2020/12/01 03:04:24;;;;;;;15.00;7.80;;;-2.20;99.90;;;;;;5087496;28;20525;-47
2020/12/01 03:06:50;;;;;;;16.40;7.05;;;-2.10;99.90;;;;;;5085677;28;20571;-47
2020/12/01 03:09:19;;;;;;;14.73;7.88;;;-2.10;99.90;;;;;;5084354;28;20101;-47
2020/12/01 03:11:46;;;;;;;15.75;8.20;;;-1.90;99.90;;;;;;5082184;28;20048;-47
2020/12/01 03:14:13;;;;;;;16.88;7.68;;;-1.90;99.90;;;;;;5079968;28;20258;-47
2020/12/01 03:16:40;;;;;;;18.02;8.43;;;-2.00;99.90;;;;;;5085184;28;20040;-47
2020/12/01 03:19:06;;;;;;;16.13;7.93;;;-2.00;99.90;;;;;;5087605;28;20044;-47
2020/12/01 03:21:33;;;;;;;11.10;6.28;;;-1.80;99.90;;;;;;5088087;28;20113;-47
2020/12/01 03:23:59;;;;;;;14.90;7.90;;;-1.90;99.90;;;;;;5078914;28;20036;-47
2020/12/01 03:26:26;;;;;;;18.27;7.15;;;-2.00;99.90;;;;;;5089067;28;20455;-47
2020/12/01 03:28:52;;;;;;;16.95;7.55;;;-1.90;99.90;;;;;;5083182;28;20048;-47
2020/12/01 03:31:20;;;;;;;14.13;6.70;;;-1.90;99.90;;;;;;5089893;28;20492;-47
2020/12/01 03:33:48;;;;;;;15.27;6.88;;;-1.80;99.90;;;;;;5087649;28;20097;-48
2020/12/01 03:36:17;;;;;;;19.52;8.63;;;-1.80;99.90;;;;;;5090464;28;20044;-47
2020/12/01 03:38:43;;;;;;;15.45;7.95;;;-2.00;99.90;;;;;;5090765;28;20397;-47
2020/12/01 03:41:10;;;;;;;13.13;5.78;;;-2.00;99.90;;;;;;5090081;28;20051;-47
2020/12/01 03:43:37;;;;;;;18.27;7.95;;;-2.00;99.90;;;;;;5093913;28;20472;-48
2020/12/01 03:46:04;;;;;;;13.60;6.10;;;-2.00;99.90;;;;;;5086553;28;20056;-47
2020/12/01 03:48:31;;;;;;;16.48;6.47;;;-2.10;99.90;;;;;;5083007;28;20708;-47
2020/12/01 03:50:58;;;;;;;18.15;6.82;;;-2.00;99.90;;;;;;5084635;28;20048;-47
2020/12/01 03:53:24;;;;;;;17.10;6.10;;;-2.00;99.90;;;;;;5084531;28;20063;-50
2020/12/01 03:55:51;;;;;;;14.50;6.80;;;-2.10;99.90;;;;;;5090982;28;20533;-47
2020/12/01 03:58:18;;;;;;;14.95;6.55;;;-1.90;99.90;;;;;;5088197;28;20101;-47
2020/12/01 04:00:45;;;;;;;11.70;6.32;;;-1.90;99.90;;;;;;5082423;28;20048;-47
2020/12/01 04:03:11;;;;;;;18.05;7.13;;;-2.00;99.90;;;;;;5087922;28;20141;-47
2020/12/01 04:05:38;;;;;;;14.63;6.70;;;-1.90;99.90;;;;;;5092669;28;20051;-47
2020/12/01 04:08:08;;;;;;;13.15;7.00;;;-1.80;99.90;;;;;;5089549;28;20095;-47
2020/12/01 04:10:35;;;;;;;12.13;6.85;;;-1.90;99.90;;;;;;5079649;28;20040;-47
2020/12/01 04:13:02;;;;;;;14.98;6.30;;;-1.80;99.90;;;;;;5085592;28;20048;-47
2020/12/01 04:15:29;;;;;;;16.90;6.97;;;-1.90;99.90;;;;;;5087188;28;20452;-47
2020/12/01 04:17:55;;;;;;;9.98;4.20;;;-1.90;99.90;;;;;;5090408;28;20048;-47
2020/12/01 04:20:22;;;;;;;15.60;5.90;;;-1.80;99.90;;;;;;5084998;28;20101;-47
2020/12/01 04:22:48;;;;;;;18.40;7.05;;;-1.90;99.90;;;;;;5089015;28;20056;-47
2020/12/01 04:25:19;;;;;;;15.00;6.72;;;-1.80;99.90;;;;;;5088382;28;20113;-47
2020/12/01 04:27:46;;;;;;;14.27;7.18;;;-1.90;99.90;;;;;;5077168;28;20044;-47
2020/12/01 04:30:12;;;;;;;13.52;5.72;;;-1.80;99.90;;;;;;5081184;28;20522;-47
2020/12/01 04:32:39;;;;;;;12.75;6.40;;;-1.90;99.90;;;;;;5079811;28;20040;-47
2020/12/01 04:35:06;;;;;;;16.17;7.07;;;-2.00;99.90;;;;;;5090650;28;20048;-47
2020/12/01 04:37:32;;;;;;;13.45;7.15;;;-2.00;99.90;;;;;;5084091;28;20511;-47
2020/12/01 04:39:59;;;;;;;11.93;6.10;;;-2.10;99.90;;;;;;5088475;28;20066;-47
2020/12/01 04:42:26;;;;;;;14.15;6.47;;;-2.30;99.90;;;;;;5087655;28;20056;-47
2020/12/01 04:45:06;;;;;;;10.80;4.50;;;-2.30;99.90;;;;;;5086452;28;20202;-47
2020/12/01 04:47:50;;;;;;;12.38;5.05;;;-2.20;99.90;;;;;;5088832;28;20040;-47
2020/12/01 04:50:28;;;;;;;9.25;3.30;;;-2.20;99.90;;;;;;5083722;28;20048;-47
2020/12/01 04:53:32;;;;;;;11.05;3.65;;;-2.10;99.90;;;;;;5080353;28;20070;-48
2020/12/01 04:56:17;;;;;;;12.93;6.03;;;-2.00;99.90;;;;;;5078415;28;20049;-48
2020/12/01 04:59:11;;;;;;;7.70;4.25;;;-2.10;99.90;;;;;;5083066;28;20086;-48
2020/12/01 05:01:56;;;;;;;11.32;4.28;;;-1.90;99.90;;;;;;5074737;28;20089;-47
2020/12/01 05:04:28;;;;;;;12.40;4.45;;;-2.00;99.90;;;;;;5088592;28;20418;-48
2020/12/01 05:07:17;;;;;;;14.18;4.20;;;-2.00;99.90;;;;;;5086619;28;20097;-47
2020/12/01 05:09:53;;;;;;;7.78;4.47;;;-2.00;99.90;;;;;;5090825;28;20044;-47
2020/12/01 05:12:56;;;;;;;9.13;4.50;;;-2.00;99.90;;;;;;5085741;28;20694;-47
2020/12/01 05:15:31;;;;;;;5.28;1.80;;;-2.00;99.90;;;;;;5074176;28;20101;-47
2020/12/01 05:18:23;;;;;;;6.75;2.63;;;-1.90;99.90;;;;;;5090017;28;20109;-47
2020/12/01 05:21:03;;;;;;;10.00;3.60;;;-1.90;99.90;;;;;;5084219;28;20074;-47
2020/12/01 05:23:48;;;;;;;9.48;3.42;;;-1.90;99.90;;;;;;5091335;28;20184;-47
2020/12/01 05:26:18;;;;;;;10.15;4.78;;;-1.80;99.90;;;;;;5080138;28;20056;-47
2020/12/01 05:28:52;;;;;;;6.50;3.10;;;-1.80;99.90;;;;;;5085198;28;20056;-51
2020/12/01 05:31:22;;;;;;;7.28;3.15;;;-1.70;99.90;;;;;;5091308;28;20072;-47
2020/12/01 05:34:00;;;;;;;8.80;4.53;;;-1.80;99.90;;;;;;5086035;28;20056;-47
2020/12/01 05:36:33;;;;;;;14.73;5.18;;;-1.80;99.90;;;;;;5087191;28;20041;-47
2020/12/01 05:39:03;;;;;;;11.30;3.58;;;-1.70;99.90;;;;;;5087657;28;20094;-47
2020/12/01 05:41:33;;;;;;;7.35;4.47;;;-1.60;99.90;;;;;;5088914;28;20048;-49
2020/12/01 05:44:21;;;;;;;7.07;2.20;;;-1.50;99.90;;;;;;5090377;28;20052;-47
2020/12/01 05:46:56;;;;;;;6.35;2.00;;;-1.50;99.90;;;;;;5083019;28;20103;-48
2020/12/01 05:49:49;;;;;;;5.20;2.17;;;-1.60;99.90;;;;;;5074998;28;20056;-47
2020/12/01 05:52:29;;;;;;;14.07;4.15;;;-1.60;99.90;;;;;;5082417;28;20098;-47
2020/12/01 05:55:24;;;;;;;6.43;2.90;;;-1.70;99.90;;;;;;5085750;28;20070;-47
2020/12/01 05:58:12;;;;;;;4.28;1.95;;;-1.60;99.90;;;;;;5077798;28;20045;-48
2020/12/01 06:00:42;;;;;;;5.40;2.42;;;-1.50;99.90;;;;;;5089817;28;20043;-47
2020/12/01 06:03:30;;;;;;;6.82;2.88;;;-1.50;99.90;;;;;;5086110;28;20048;-47
2020/12/01 06:06:00;;;;;;;8.73;2.60;;;-1.50;99.90;;;;;;5083063;28;20055;-47
2020/12/01 06:09:14;;;;;;;7.53;4.18;;;-1.40;99.90;;;;;;5083806;28;20105;-47
2020/12/01 06:11:57;;;;;;;9.50;4.63;;;-1.40;99.90;;;;;;5056971;28;20091;-47
2020/12/01 06:14:31;;;;;;;9.70;4.95;;;-1.40;99.90;;;;;;5068116;28;20048;-48
2020/12/01 06:17:04;;;;;;;13.07;5.72;;;-1.40;99.90;;;;;;5079773;28;20067;-47
2020/12/01 06:19:50;;;;;;;6.40;3.13;;;-1.60;99.90;;;;;;5082385;28;20077;-47
2020/12/01 06:22:20;;;;;;;9.23;4.32;;;-1.60;99.90;;;;;;5087043;28;20047;-47
2020/12/01 06:25:14;;;;;;;11.82;4.93;;;-1.50;99.90;;;;;;5084165;28;20044;-48
2020/12/01 06:27:46;;;;;;;14.98;6.90;;;-1.40;99.90;;;;;;5081890;28;20040;-47
2020/12/01 06:30:39;;;;;;;15.05;6.53;;;-1.40;99.90;;;;;;5082379;28;20045;-47
2020/12/01 06:33:41;;;;;;;8.68;3.00;;;-1.40;99.90;;;;;;5078229;28;20451;-48
2020/12/01 06:36:39;;;;;;;8.63;3.88;;;-1.30;99.90;;;;;;5071480;28;20036;-47
2020/12/01 06:39:27;;;;;;;29.45;23.65;;;-1.30;99.90;;;;;;5079193;28;20052;-47
2020/12/01 06:42:12;;;;;;;7.15;3.13;;;-1.20;99.90;;;;;;5081361;28;20052;-47
2020/12/01 06:44:42;;;;;;;5.20;2.40;;;-1.20;99.90;;;;;;5073793;28;20383;-47
2020/12/01 06:47:08;;;;;;;6.97;3.45;;;-1.10;99.90;;;;;;5084600;28;20059;-47
2020/12/01 06:49:37;;;;;;;4.30;1.83;;;-1.00;99.90;;;;;;5087027;28;20101;-48
2020/12/01 06:52:10;;;;;;;7.45;2.05;;;-1.00;99.90;;;;;;5085707;28;20077;-48
2020/12/01 06:54:52;;;;;;;4.60;1.42;;;-1.00;99.90;;;;;;5079490;28;20530;-47
2020/12/01 06:57:37;;;;;;;7.82;5.25;;;-0.90;99.90;;;;;;5088775;28;20442;-49
2020/12/01 07:00:06;;;;;;;7.10;4.70;;;-0.90;99.90;;;;;;5079554;28;20084;-47
2020/12/01 07:02:38;;;;;;;7.05;3.10;;;-0.90;99.90;;;;;;5073792;28;20443;-47
2020/12/01 07:05:05;;;;;;;6.80;4.75;;;-0.90;99.90;;;;;;5084733;28;20621;-47
2020/12/01 07:07:34;;;;;;;1.25;0.70;;;-0.90;99.90;;;;;;5086569;28;20052;-47
2020/12/01 07:10:12;;;;;;;4.13;1.35;;;-0.80;99.90;;;;;;5072732;28;20056;-48
2020/12/01 07:13:17;;;;;;;6.53;2.70;;;-0.70;99.90;;;;;;5081020;28;20052;-47
2020/12/01 07:15:47;;;;;;;5.93;3.15;;;-0.70;99.90;;;;;;5077455;28;20051;-47
2020/12/01 07:18:30;;;;;;;6.15;3.45;;;-0.70;99.90;;;;;;5082685;28;20040;-48
2020/12/01 07:21:16;;;;;;;3.75;2.15;;;-0.60;99.90;;;;;;5082610;28;20056;-48
2020/12/01 07:23:49;;;;;;;6.70;2.55;;;-0.60;99.90;;;;;;5088306;28;20052;-48
2020/12/01 07:26:15;;;;;;;6.28;3.03;;;-0.60;99.90;;;;;;5076226;28;20056;-48
2020/12/01 07:29:02;;;;;;;10.52;5.43;;;-0.50;99.90;;;;;;5078513;28;20206;-48
2020/12/01 07:31:33;;;;;;;6.60;4.38;;;-0.50;99.90;;;;;;5077516;28;20484;-48
2020/12/01 07:34:07;;;;;;;7.30;4.18;;;-0.40;99.90;;;;;;5080865;28;20049;-48
2020/12/01 07:36:49;;;;;;;9.80;4.85;;;-0.40;99.90;;;;;;5085820;28;20052;-48
2020/12/01 07:39:18;;;;;;;10.65;7.18;;;-0.30;99.90;;;;;;5086658;28;20048;-50
2020/12/01 07:41:53;;;;;;;6.50;3.42;;;-0.40;99.90;;;;;;5086603;28;20036;-48
2020/12/01 07:44:25;;;;;;;14.20;5.13;;;-0.40;99.90;;;;;;5086997;28;20044;-49
2020/12/01 07:47:05;;;;;;;12.32;7.32;;;-0.40;99.90;;;;;;5084134;28;20160;-49
2020/12/01 07:49:34;;;;;;;18.85;10.13;;;-0.40;99.90;;;;;;5072647;28;20472;-48
2020/12/01 07:52:14;;;;;;;12.68;6.30;;;-0.50;99.90;;;;;;5088313;28;20056;-49
2020/12/01 07:54:45;;;;;;;11.07;6.22;;;-0.50;99.90;;;;;;5084655;28;20048;-52
2020/12/01 07:57:16;;;;;;;36.38;15.82;;;-0.40;99.90;;;;;;5078000;28;20450;-48
2020/12/01 07:59:48;;;;;;;24.85;9.95;;;-0.50;99.90;;;;;;5083476;28;20044;-48
2020/12/01 08:02:17;;;;;;;21.33;10.27;;;-0.60;99.90;;;;;;5087733;28;20059;-49
2020/12/01 08:04:44;;;;;;;12.82;6.38;;;-0.50;99.90;;;;;;5080071;28;20056;-48
2020/12/01 08:07:16;;;;;;;10.30;6.03;;;-0.60;99.90;;;;;;5073333;28;20403;-50
2020/12/01 08:09:44;;;;;;;50.22;23.38;;;-0.70;99.90;;;;;;5089505;28;20051;-48
2020/12/01 08:12:15;;;;;;;64.68;29.65;;;-0.70;99.90;;;;;;5084762;28;20048;-49
2020/12/01 08:14:52;;;;;;;74.28;33.28;;;-0.70;99.90;;;;;;5089424;28;20052;-49
2020/12/01 08:17:27;;;;;;;48.83;26.85;;;-0.60;99.90;;;;;;5079420;28;20045;-48
2020/12/01 08:19:57;;;;;;;36.20;19.17;;;-0.60;99.90;;;;;;5075122;28;20059;-49
2020/12/01 08:22:33;;;;;;;32.58;14.00;;;-0.60;99.90;;;;;;5083028;28;20158;-49
2020/12/01 08:25:04;;;;;;;17.83;8.70;;;-0.60;99.90;;;;;;5082923;28;20060;-48
2020/12/01 08:27:48;;;;;;;29.30;15.65;;;-0.60;99.90;;;;;;5091432;28;20063;-48
2020/12/01 08:30:35;;;;;;;22.27;11.65;;;-0.50;99.90;;;;;;5088689;28;20055;-49
2020/12/01 08:33:19;;;;;;;23.95;12.43;;;-0.40;99.90;;;;;;5087636;28;20526;-49
2020/12/01 08:36:31;;;;;;;26.55;13.40;;;-0.30;99.90;;;;;;5090375;28;20040;-48
2020/12/01 08:39:16;;;;;;;18.70;8.07;;;-0.30;99.90;;;;;;5067419;28;20044;-48
2020/12/01 08:42:05;;;;;;;21.23;12.40;;;-0.20;99.90;;;;;;5066396;28;20130;-48
2020/12/01 08:45:06;;;;;;;26.95;12.93;;;-0.10;99.90;;;;;;5077588;28;20461;-48
2020/12/01 08:47:33;;;;;;;10.88;5.35;;;0.00;99.90;;;;;;5087908;28;20044;-48
2020/12/01 08:49:59;;;;;;;11.15;5.25;;;0.00;99.90;;;;;;5088951;28;20097;-48
2020/12/01 08:52:41;;;;;;;7.13;3.63;;;0.20;99.90;;;;;;5090241;28;20052;-48
2020/12/01 08:55:22;;;;;;;5.75;3.30;;;0.20;99.90;;;;;;5088241;28;20040;-48
2020/12/01 08:58:11;;;;;;;5.57;2.42;;;0.30;99.90;;;;;;5082017;28;21103;-48
2020/12/01 09:00:37;;;;;;;4.38;1.90;;;0.40;99.90;;;;;;5090484;28;20446;-47
2020/12/01 09:03:10;;;;;;;3.95;1.48;;;0.40;99.90;;;;;;5087916;28;20043;-47
2020/12/01 09:05:46;;;;;;;8.18;2.17;;;0.50;99.90;;;;;;5077424;28;20058;-48
2020/12/01 09:11:19;;;;;;;7.57;4.15;;;0.70;99.90;;;;;;5073453;28;20068;-47
2020/12/01 09:21:54;;;;;;;5.25;1.75;;;0.90;99.90;;;;;;5081912;28;20044;-47
2020/12/01 09:24:25;;;;;;;2.90;1.27;;;1.00;99.90;;;;;;5090052;28;20455;-47
2020/12/01 09:27:12;;;;;;;5.13;2.85;;;1.00;99.90;;;;;;5079916;28;20053;-50
2020/12/01 09:29:48;;;;;;;18.25;8.80;;;1.10;99.90;;;;;;5082317;28;20094;-48
2020/12/01 09:32:21;;;;;;;25.30;12.43;;;1.20;99.90;;;;;;5076291;28;20055;-47
2020/12/01 09:34:48;;;;;;;29.85;14.48;;;1.30;99.90;;;;;;5084954;28;20750;-47
2020/12/01 09:37:16;;;;;;;20.48;11.30;;;1.30;99.90;;;;;;5089084;28;20040;-48
2020/12/01 09:39:42;;;;;;;22.15;12.32;;;1.30;99.90;;;;;;5087006;28;20518;-48
2020/12/01 09:42:13;;;;;;;24.40;14.48;;;1.30;99.90;;;;;;5088154;28;20421;-47
2020/12/01 09:45:04;;;;;;;33.70;18.73;;;1.30;99.90;;;;;;5088804;28;20040;-49
2020/12/01 09:50:10;;;;;;;80.45;39.08;;;1.30;99.90;;;;;;5077009;28;20134;-48
2020/12/01 09:53:16;;;;;;;46.80;25.48;;;1.40;99.90;;;;;;5076180;28;20080;-48
2020/12/01 09:59:06;;;;;;;38.03;20.20;;;1.40;99.90;;;;;;5072581;28;20052;-48
2020/12/01 10:25:48;;;;;;;21.27;10.43;;;1.70;99.90;;;;;;5076909;28;20131;-48
2020/12/01 10:36:25;;;;;;;20.40;9.75;;;1.60;99.90;;;;;;5081118;28;20047;-48
2020/12/01 10:38:53;;;;;;;18.60;10.43;;;1.50;99.90;;;;;;5083703;28;20049;-47
2020/12/01 10:41:19;;;;;;;46.60;29.15;;;1.60;99.90;;;;;;5088966;28;20413;-47
2020/12/01 10:43:46;;;;;;;50.55;31.88;;;1.50;99.90;;;;;;5083480;28;20442;-47
2020/12/01 10:46:13;;;;;;;27.65;15.13;;;1.60;99.90;;;;;;5086132;28;20457;-48
2020/12/01 10:48:40;;;;;;;31.70;19.00;;;1.70;99.90;;;;;;5080755;28;20040;-48
2020/12/01 10:51:06;;;;;;;12.40;7.15;;;1.70;99.90;;;;;;5078882;28;20051;-48
2020/12/01 10:53:33;;;;;;;18.45;8.98;;;1.70;99.90;;;;;;5088481;28;20068;-47
2020/12/01 10:56:00;;;;;;;26.65;11.60;;;1.70;99.90;;;;;;5081433;28;20146;-47
2020/12/01 10:58:26;;;;;;;15.70;7.13;;;1.80;99.90;;;;;;5089083;28;20052;-47
2020/12/01 11:00:53;;;;;;;18.05;8.88;;;1.80;99.90;;;;;;5082148;28;20051;-47
2020/12/01 11:03:19;;;;;;;18.70;10.88;;;1.90;99.90;;;;;;5075948;28;20055;-47
2020/12/01 11:05:46;;;;;;;22.10;12.45;;;2.00;99.90;;;;;;5083401;28;20043;-47
2020/12/01 11:08:13;;;;;;;16.98;7.97;;;2.00;99.90;;;;;;5085677;28;20052;-47
2020/12/01 11:10:41;;;;;;;12.40;7.88;;;2.00;99.90;;;;;;5085306;28;20051;-47
2020/12/01 11:13:09;;;;;;;12.88;8.85;;;2.00;99.90;;;;;;5083567;28;20381;-47
2020/12/01 11:15:36;;;;;;;13.35;8.38;;;2.00;99.90;;;;;;5084219;28;20040;-47
2020/12/01 11:18:06;;;;;;;11.80;7.68;;;2.00;99.90;;;;;;5081154;28;20048;-47
2020/12/01 11:20:33;;;;;;;20.70;13.35;;;2.10;99.90;;;;;;5075937;28;20048;-47
2020/12/01 11:23:01;;;;;;;10.25;6.47;;;2.10;99.90;;;;;;5079929;28;20043;-47
2020/12/01 11:25:27;;;;;;;14.73;7.85;;;2.20;99.90;;;;;;5077986;28;20480;-47
2020/12/01 11:27:54;;;;;;;17.98;9.10;;;2.30;99.90;;;;;;5086017;28;20055;-47
2020/12/01 11:30:22;;;;;;;16.30;9.10;;;2.30;99.90;;;;;;5083277;28;20058;-48
2020/12/01 11:32:48;;;;;;;19.58;9.93;;;2.30;99.90;;;;;;5088418;28;20113;-50
2020/12/01 11:35:16;;;;;;;11.80;6.82;;;2.40;99.90;;;;;;5080358;28;20044;-47
2020/12/01 11:37:43;;;;;;;24.52;11.38;;;2.40;99.90;;;;;;5077912;28;20040;-47
2020/12/01 11:40:11;;;;;;;9.25;5.57;;;2.40;99.90;;;;;;5085579;28;20142;-47
2020/12/01 11:42:38;;;;;;;6.05;2.45;;;2.30;99.90;;;;;;5084321;28;20056;-48
2020/12/01 11:45:06;;;;;;;5.70;2.75;;;2.40;99.90;;;;;;5086252;28;20474;-47
2020/12/01 11:47:32;;;;;;;4.93;2.55;;;2.40;99.90;;;;;;5085033;28;20040;-47
2020/12/01 11:49:59;;;;;;;11.40;6.07;;;2.40;99.90;;;;;;5086020;28;20052;-48
2020/12/01 11:52:25;;;;;;;11.10;4.78;;;2.50;99.90;;;;;;5083252;28;20044;-47
2020/12/01 11:54:53;;;;;;;6.18;2.88;;;2.60;99.90;;;;;;5091410;28;20452;-48
2020/12/01 11:57:20;;;;;;;5.60;1.73;;;2.60;99.90;;;;;;5082546;28;20048;-47
2020/12/01 11:59:46;;;;;;;5.60;1.63;;;2.60;99.90;;;;;;5090951;28;20044;-47
2020/12/01 12:02:13;;;;;;;34.30;13.98;;;2.70;99.90;;;;;;5090135;28;20545;-47
2020/12/01 12:04:51;;;;;;;16.85;9.32;;;2.70;99.90;;;;;;5091625;28;20567;-50
2020/12/01 12:07:17;;;;;;;14.25;6.30;;;2.80;99.90;;;;;;5090177;28;20044;-48
2020/12/01 12:09:44;;;;;;;14.13;6.22;;;2.80;99.90;;;;;;5086380;28;20035;-47
2020/12/01 12:12:11;;;;;;;9.88;5.45;;;2.80;99.90;;;;;;5080586;28;20048;-47
2020/12/01 12:14:40;;;;;;;8.45;4.78;;;2.90;99.90;;;;;;5082253;28;20060;-47
2020/12/01 12:17:07;;;;;;;10.43;5.57;;;2.90;99.90;;;;;;5073765;28;20044;-48
2020/12/01 12:19:34;;;;;;;7.15;2.75;;;3.00;99.90;;;;;;5082564;28;20045;-47
2020/12/01 12:22:04;;;;;;;5.82;2.72;;;3.00;99.90;;;;;;5090345;28;20063;-47
2020/12/01 12:24:30;;;;;;;6.15;3.00;;;3.10;99.90;;;;;;5079749;28;20059;-47
2020/12/01 12:26:57;;;;;;;6.88;3.40;;;3.10;99.90;;;;;;5080176;28;20085;-47
2020/12/01 12:29:24;;;;;;;5.82;1.73;;;3.20;99.90;;;;;;5087761;28;20553;-48
2020/12/01 12:31:50;;;;;;;7.82;4.10;;;3.30;99.90;;;;;;5082426;28;20098;-49
2020/12/01 12:34:17;;;;;;;6.30;2.78;;;3.30;99.90;;;;;;5087966;28;20044;-48
2020/12/01 12:36:44;;;;;;;9.88;3.28;;;3.40;99.90;;;;;;5087317;28;20047;-48
2020/12/01 12:39:12;;;;;;;7.45;2.75;;;3.40;99.90;;;;;;5089755;28;20044;-47
2020/12/01 12:41:39;;;;;;;5.70;2.70;;;3.50;99.90;;;;;;5089950;28;20044;-47
2020/12/01 12:44:06;;;;;;;7.55;2.35;;;3.50;99.90;;;;;;5088531;28;20052;-48
2020/12/01 12:46:32;;;;;;;10.57;3.83;;;3.60;99.90;;;;;;5081394;28;20422;-51
2020/12/01 12:48:59;;;;;;;16.40;8.25;;;3.60;99.90;;;;;;5088562;28;20047;-47
2020/12/01 12:51:27;;;;;;;17.45;8.50;;;3.70;99.90;;;;;;5087279;28;20051;-48
2020/12/01 12:53:53;;;;;;;14.85;6.65;;;3.70;99.90;;;;;;5087163;28;20537;-48
2020/12/01 12:56:22;;;;;;;9.70;3.65;;;3.80;99.90;;;;;;5075354;28;20048;-48
2020/12/01 12:58:51;;;;;;;9.13;4.32;;;3.90;99.90;;;;;;5088846;28;20048;-48
2020/12/01 13:01:20;;;;;;;13.57;4.70;;;4.10;99.90;;;;;;5076743;28;20044;-48
2020/12/01 13:03:47;;;;;;;25.45;12.20;;;4.10;99.90;;;;;;5089188;28;20048;-48
2020/12/01 13:06:14;;;;;;;14.25;6.55;;;4.10;99.90;;;;;;5088630;28;20128;-47
2020/12/01 13:08:46;;;;;;;11.55;4.85;;;4.30;99.90;;;;;;5087008;28;20054;-48
2020/12/01 13:11:15;;;;;;;5.60;2.65;;;4.30;99.90;;;;;;5083985;28;20083;-47
2020/12/01 13:13:43;;;;;;;15.10;5.97;;;4.30;99.90;;;;;;5087075;28;20131;-48
2020/12/01 13:16:14;;;;;;;29.20;13.65;;;4.30;99.90;;;;;;5085731;28;20056;-47
2020/12/01 13:18:44;;;;;;;40.33;18.40;;;4.30;99.90;;;;;;5086271;28;20438;-48
2020/12/01 13:21:11;;;;;;;33.90;17.52;;;4.30;99.90;;;;;;5088741;28;20102;-47
2020/12/01 13:23:39;;;;;;;27.67;14.77;;;4.40;99.90;;;;;;5080436;28;20044;-48
2020/12/01 13:26:06;;;;;;;30.70;14.57;;;4.40;99.90;;;;;;5081565;28;20048;-48
2020/12/01 13:28:33;;;;;;;36.10;19.67;;;4.50;99.90;;;;;;5084621;28;20423;-48
2020/12/01 13:31:00;;;;;;;45.25;22.80;;;4.60;99.90;;;;;;5090898;28;20967;-48
2020/12/01 13:33:35;;;;;;;47.28;27.48;;;4.60;99.90;;;;;;5088013;28;20176;-47
2020/12/01 13:36:05;;;;;;;52.80;31.45;;;4.50;99.90;;;;;;5080711;28;20079;-50
2020/12/01 13:38:37;;;;;;;49.08;26.17;;;4.50;99.90;;;;;;5090000;28;20044;-48
2020/12/01 13:41:12;;;;;;;41.57;22.93;;;4.40;99.90;;;;;;5085220;28;20067;-48
2020/12/01 13:43:42;;;;;;;46.72;23.73;;;4.40;99.90;;;;;;5083420;28;20056;-48
2020/12/01 13:46:14;;;;;;;41.80;23.67;;;4.40;99.90;;;;;;5081584;28;20389;-48
2020/12/01 13:48:41;;;;;;;53.55;27.05;;;4.40;99.90;;;;;;5086624;28;20477;-48
2020/12/01 13:51:13;;;;;;;44.42;24.30;;;4.30;99.90;;;;;;5086129;28;20129;-47
2020/12/01 13:53:43;;;;;;;39.58;22.88;;;4.30;99.90;;;;;;5087248;28;20056;-48